Terminal Aerodrome Forecast
Issued by NWS

Home | Current Version | Previous Version | Text Only | Print | Product List | Glossary On
Versions: 1 2 3 4 5 6 7 8 9 10 11 12 13 14 15 16 17 18 19 20 21 22 23 24 25 26 27 28 29 30
000
FTAK31 PANC 111739
TAFAGK
TAF
PAGK 111739Z 1118/1218 17008KT P6SM -RA BKN050 OVC080
     FM112100 16013G20KT P6SM SCT050 BKN100
     FM120500 16007KT P6SM FEW050 BKN120=

USA.gov is the U.S. government's official web portal to all federal, state and local government web resources and services.